Time;durP1;ratioP1;P1;durP2;ratioP2;P2;SDS_P1;SDS_P2;PMS_P1;PMS_P2;Temp;Humidity;BMP_temperature;BMP_pressure;BME280_temperature;BME280_humidity;BME280_pressure;Samples;Min_cycle;Max_cycle;Signal;HPM_P1;HPM_P2
2024/01/03 00:21:10;;;;;;;10.75;1.55;;;;;;;10.53;98.94;98672.03;5098669;27;20730;-87
2024/01/03 00:32:18;;;;;;;9.70;1.33;;;;;;;10.39;100.00;98659.25;5095763;28;20035;-86
2024/01/03 00:38:13;;;;;;;16.95;2.85;;;;;;;10.34;100.00;98698.00;5095649;28;20047;-86
2024/01/03 00:41:01;;;;;;;18.40;2.83;;;;;;;10.33;100.00;98671.94;5077239;28;20047;-86
2024/01/03 01:29:12;;;;;;;29.40;3.78;;;;;;;9.75;100.00;98735.09;5098393;27;20510;-87
2024/01/03 02:10:01;;;;;;;15.87;2.40;;;;;;;10.05;100.00;98752.59;5071793;28;20036;-87
2024/01/03 02:23:00;;;;;;;17.38;2.78;;;;;;;9.96;100.00;98763.09;5073309;28;20079;-87
2024/01/03 02:40:30;;;;;;;16.13;2.35;;;;;;;9.68;100.00;98767.00;5097643;28;20098;-88
2024/01/03 02:43:13;;;;;;;14.77;2.13;;;;;;;9.63;100.00;98775.09;5079854;28;20024;-88
2024/01/03 03:03:01;;;;;;;15.85;2.47;;;;;;;9.41;100.00;98780.59;5097286;28;20042;-86
2024/01/03 03:12:52;;;;;;;17.13;2.92;;;;;;;9.47;100.00;98780.38;5097190;28;20154;-87
2024/01/03 03:15:17;;;;;;;22.77;3.03;;;;;;;9.51;100.00;98793.41;5078623;28;20028;-87
2024/01/03 03:17:43;;;;;;;22.60;2.70;;;;;;;9.48;100.00;98783.91;5096907;28;20032;-87
2024/01/03 03:34:31;;;;;;;25.90;2.67;;;;;;;8.67;100.00;98825.31;5096765;28;20160;-86
2024/01/03 03:45:44;;;;;;;28.50;3.45;;;;;;;8.52;100.00;98801.59;5096753;28;20042;-87
2024/01/03 03:48:36;;;;;;;26.35;2.75;;;;;;;8.41;100.00;98803.34;5078079;28;20040;-86
2024/01/03 03:51:01;;;;;;;18.23;2.30;;;;;;;8.30;100.00;98806.97;5095825;28;20104;-86
2024/01/03 03:53:27;;;;;;;17.77;2.50;;;;;;;8.19;100.00;98793.38;5096473;28;20099;-86
2024/01/03 03:56:08;;;;;;;31.33;3.07;;;;;;;8.18;100.00;98796.28;5078195;28;20399;-86
2024/01/03 03:58:48;;;;;;;28.70;3.13;;;;;;;8.12;100.00;98805.38;5079105;28;20035;-86
2024/01/03 04:01:14;;;;;;;28.80;2.90;;;;;;;8.09;100.00;98812.13;5057863;28;20047;-86
2024/01/03 04:03:42;;;;;;;31.23;3.85;;;;;;;8.04;100.00;98798.53;5041404;28;20024;-85
2024/01/03 04:06:07;;;;;;;34.23;3.33;;;;;;;8.01;100.00;98794.44;5041827;28;20090;-86
2024/01/03 04:08:33;;;;;;;21.98;2.00;;;;;;;8.02;100.00;98795.28;5074576;28;20024;-86
2024/01/03 04:10:58;;;;;;;26.33;2.67;;;;;;;7.98;100.00;98826.53;5057203;28;20024;-86
2024/01/03 04:13:26;;;;;;;16.83;2.13;;;;;;;7.97;100.00;98819.50;5057893;28;20457;-86
2024/01/03 04:15:52;;;;;;;24.27;2.50;;;;;;;7.98;100.00;98821.94;5074517;28;20189;-86
2024/01/03 04:18:17;;;;;;;20.60;2.90;;;;;;;8.01;100.00;98813.34;5075433;28;20032;-86
2024/01/03 04:20:43;;;;;;;19.67;1.70;;;;;;;8.02;100.00;98809.59;5058138;28;20119;-85
2024/01/03 04:23:26;;;;;;;11.45;1.52;;;;;;;8.06;100.00;98804.50;5075614;28;20119;-86
2024/01/03 04:26:22;;;;;;;17.80;2.40;;;;;;;8.01;100.00;98820.66;5040328;28;20040;-86
2024/01/03 04:28:50;;;;;;;14.48;2.05;;;;;;;7.97;100.00;98820.34;5057675;28;20032;-86
2024/01/03 04:31:18;;;;;;;20.67;2.20;;;;;;;7.97;100.00;98819.50;5075450;28;20029;-86
2024/01/03 04:33:49;;;;;;;14.30;1.67;;;;;;;7.97;100.00;98814.94;5041199;28;20048;-86
2024/01/03 04:39:42;;;;;;;18.47;1.90;;;;;;;7.97;100.00;98824.91;5074760;28;20519;-86
2024/01/03 04:45:30;;;;;;;11.68;1.73;;;;;;;7.93;100.00;98821.06;5055270;28;20063;-86
2024/01/03 04:47:56;;;;;;;9.18;1.35;;;;;;;7.97;100.00;98814.94;5053706;28;20084;-86
2024/01/03 04:50:21;;;;;;;12.00;1.60;;;;;;;7.93;100.00;98816.50;5037464;28;20045;-85
2024/01/03 04:53:00;;;;;;;13.53;1.27;;;;;;;7.96;100.00;98866.47;5037039;28;20037;-86
2024/01/03 04:59:10;;;;;;;11.15;1.15;;;;;;;7.96;100.00;98831.34;5054961;28;20039;-85
2024/01/03 05:08:23;;;;;;;11.50;1.40;;;;;;;7.96;100.00;98832.19;5053857;28;20040;-86
2024/01/03 05:10:48;;;;;;;9.63;1.15;;;;;;;7.94;100.00;98834.31;5053311;28;20033;-86
2024/01/03 05:13:14;;;;;;;9.03;0.90;;;;;;;7.97;100.00;98843.81;5036747;28;20033;-86
2024/01/03 05:15:39;;;;;;;7.90;1.20;;;;;;;7.92;100.00;98832.94;5053333;28;20170;-86
2024/01/03 05:18:07;;;;;;;7.40;0.93;;;;;;;7.88;100.00;98835.31;5053241;28;20035;-86
2024/01/03 05:20:33;;;;;;;11.70;1.20;;;;;;;7.84;100.00;98823.34;5036565;28;20494;-86
2024/01/03 05:22:58;;;;;;;8.07;0.80;;;;;;;7.85;100.00;98816.91;5036105;28;20513;-87
2024/01/03 05:25:24;;;;;;;14.50;1.23;;;;;;;7.84;100.00;98858.44;5054066;28;20522;-86
2024/01/03 05:27:49;;;;;;;7.47;0.98;;;;;;;7.78;100.00;98837.84;5054001;28;20029;-87
2024/01/03 05:30:18;;;;;;;9.63;1.00;;;;;;;7.76;100.00;98846.19;5036275;28;20127;-85
2024/01/03 05:32:44;;;;;;;9.80;1.00;;;;;;;7.72;100.00;98836.94;5053958;28;20025;-85
2024/01/03 05:35:12;;;;;;;9.45;1.27;;;;;;;7.72;100.00;98839.63;5035811;28;20532;-85
2024/01/03 05:37:37;;;;;;;13.90;1.53;;;;;;;7.70;100.00;98830.97;5036236;28;20037;-85
2024/01/03 05:40:03;;;;;;;8.50;1.25;;;;;;;7.73;100.00;98852.88;5022831;28;20461;-86
2024/01/03 05:42:29;;;;;;;9.17;1.47;;;;;;;7.69;100.00;98853.63;5056121;28;20106;-86
2024/01/03 05:44:54;;;;;;;9.10;1.30;;;;;;;7.66;100.00;98832.53;5055682;28;20468;-84
2024/01/03 05:47:20;;;;;;;9.97;1.33;;;;;;;7.63;100.00;98841.13;5072412;28;20536;-84
2024/01/03 05:49:45;;;;;;;7.27;1.23;;;;;;;7.61;100.00;98835.97;5039374;28;20102;-84
2024/01/03 05:52:10;;;;;;;8.50;1.10;;;;;;;7.58;100.00;98849.97;5055935;28;20495;-85
2024/01/03 05:54:38;;;;;;;8.47;1.10;;;;;;;7.57;100.00;98834.00;5055446;28;20085;-85
2024/01/03 05:57:04;;;;;;;12.43;1.38;;;;;;;7.54;100.00;98849.63;5055505;28;20067;-85
2024/01/03 05:59:30;;;;;;;12.13;1.02;;;;;;;7.52;100.00;98859.84;5038629;28;20128;-84
2024/01/03 06:01:55;;;;;;;10.87;1.57;;;;;;;7.52;100.00;98840.94;5054773;28;20111;-85
2024/01/03 06:04:21;;;;;;;16.30;1.75;;;;;;;7.53;100.00;98849.88;5055230;28;20120;-84
2024/01/03 06:06:46;;;;;;;9.40;1.73;;;;;;;7.53;100.00;98850.69;5073163;28;20033;-84
2024/01/03 06:09:12;;;;;;;14.73;2.03;;;;;;;7.53;100.00;98855.28;5072370;28;20107;-83
2024/01/03 06:11:37;;;;;;;13.83;1.50;;;;;;;7.52;100.00;98859.84;5055179;28;20033;-84
2024/01/03 06:14:02;;;;;;;21.20;2.23;;;;;;;7.51;100.00;98857.38;5071831;28;20566;-84
2024/01/03 06:16:28;;;;;;;10.85;1.20;;;;;;;7.50;100.00;98856.59;5055128;28;20025;-84
2024/01/03 06:18:53;;;;;;;7.53;1.02;;;;;;;7.53;100.00;98860.69;5055484;28;20036;-84
2024/01/03 06:21:20;;;;;;;12.57;1.57;;;;;;;7.48;100.00;98852.47;5073222;28;20063;-83
2024/01/03 06:23:49;;;;;;;12.00;1.20;;;;;;;7.44;100.00;98854.88;5055013;28;20102;-85
2024/01/03 06:26:17;;;;;;;11.43;1.48;;;;;;;7.41;100.00;98854.50;5055012;28;20028;-85
2024/01/03 06:28:43;;;;;;;15.30;1.48;;;;;;;7.38;100.00;98858.50;5054604;28;20032;-86
2024/01/03 06:31:08;;;;;;;14.87;1.57;;;;;;;7.35;100.00;98843.66;5071730;28;20041;-85
2024/01/03 06:33:33;;;;;;;9.50;1.07;;;;;;;7.34;100.00;98849.28;5054825;28;20412;-84
2024/01/03 06:35:59;;;;;;;13.40;1.10;;;;;;;7.30;100.00;98838.16;5072843;28;20520;-86
2024/01/03 06:38:25;;;;;;;13.23;1.98;;;;;;;7.32;100.00;98851.41;5072416;28;20028;-86
2024/01/03 06:40:51;;;;;;;13.87;1.27;;;;;;;7.33;100.00;98853.03;5059793;28;20083;-85
2024/01/03 06:43:16;;;;;;;9.60;1.80;;;;;;;7.33;100.00;98858.44;5068055;28;20653;-87
2024/01/03 06:45:42;;;;;;;11.57;1.27;;;;;;;7.29;100.00;98852.72;5064480;28;20047;-86
2024/01/03 06:48:10;;;;;;;6.40;1.17;;;;;;;7.20;100.00;98876.56;5057858;28;20055;-84
2024/01/03 06:50:35;;;;;;;4.00;0.88;;;;;;;7.13;100.00;98867.81;5057254;28;20047;-85
2024/01/03 06:53:00;;;;;;;7.00;0.87;;;;;;;7.08;100.00;98859.59;5044100;28;20039;-84
2024/01/03 06:55:26;;;;;;;9.37;1.20;;;;;;;7.03;100.00;98895.38;5057606;28;20047;-84
2024/01/03 06:57:53;;;;;;;4.53;0.60;;;;;;;7.01;100.00;98892.13;5060832;28;20275;-84
2024/01/03 07:00:19;;;;;;;6.78;1.10;;;;;;;6.96;100.00;98899.28;5084088;28;20047;-89
2024/01/03 07:02:45;;;;;;;5.43;0.82;;;;;;;6.90;100.00;98900.25;5073836;28;20476;-85
2024/01/03 07:05:13;;;;;;;4.35;0.63;;;;;;;6.78;100.00;98930.72;5078589;28;20052;-85
2024/01/03 07:07:38;;;;;;;4.00;0.35;;;;;;;6.64;100.00;98900.53;5074329;28;20032;-85
2024/01/03 07:10:04;;;;;;;4.83;0.40;;;;;;;6.55;100.00;98903.81;5053607;28;20107;-85
2024/01/03 07:12:32;;;;;;;3.47;0.40;;;;;;;6.46;100.00;98901.47;5063208;28;20036;-85
2024/01/03 07:15:05;;;;;;;3.47;0.30;;;;;;;6.37;100.00;98902.91;5071861;28;20027;-86
2024/01/03 07:17:30;;;;;;;2.83;0.30;;;;;;;6.31;100.00;98904.66;5075149;28;20032;-85
2024/01/03 07:19:56;;;;;;;4.07;0.30;;;;;;;6.28;100.00;98902.44;5073681;28;20487;-85
2024/01/03 07:22:22;;;;;;;2.97;0.32;;;;;;;6.25;100.00;98897.53;5058173;28;20032;-84
2024/01/03 07:24:47;;;;;;;3.73;0.40;;;;;;;6.27;100.00;98908.88;5075416;28;20456;-85
2024/01/03 07:27:13;;;;;;;2.55;0.40;;;;;;;6.26;100.00;98907.25;5074346;28;20024;-87
2024/01/03 07:29:38;;;;;;;4.97;0.87;;;;;;;6.34;100.00;98891.78;5076166;28;20055;-86
2024/01/03 07:32:04;;;;;;;5.70;0.70;;;;;;;6.38;100.00;98911.78;5059631;28;20032;-87
2024/01/03 07:34:31;;;;;;;3.38;0.73;;;;;;;6.45;100.00;98923.28;5070160;28;20139;-86
2024/01/03 07:36:56;;;;;;;2.90;0.80;;;;;;;6.47;100.00;98910.41;5052340;28;20295;-85
2024/01/03 07:39:22;;;;;;;5.57;0.88;;;;;;;6.52;100.00;98915.88;5077058;28;20468;-85
2024/01/03 07:41:51;;;;;;;5.67;1.07;;;;;;;6.57;100.00;98931.34;5075804;28;20052;-85
2024/01/03 07:44:16;;;;;;;4.30;1.38;;;;;;;6.62;100.00;98920.69;5052506;28;20616;-85
2024/01/03 07:46:42;;;;;;;4.30;1.30;;;;;;;6.61;100.00;98913.66;5070718;28;20149;-85
2024/01/03 07:49:07;;;;;;;9.00;2.22;;;;;;;6.67;100.00;98923.47;5077073;28;20028;-84
2024/01/03 07:51:38;;;;;;;8.17;1.67;;;;;;;6.70;100.00;98920.31;5055689;28;20040;-85
2024/01/03 07:54:04;;;;;;;6.90;2.15;;;;;;;6.74;100.00;98934.97;5093593;28;20028;-85
2024/01/03 07:56:30;;;;;;;5.25;1.80;;;;;;;6.73;100.00;98930.63;5072038;28;20107;-86
2024/01/03 07:58:55;;;;;;;5.37;2.10;;;;;;;6.79;100.00;98928.84;5076998;28;20476;-86
2024/01/03 08:01:21;;;;;;;8.33;2.30;;;;;;;6.81;100.00;98935.66;5060349;28;20032;-85
2024/01/03 08:03:47;;;;;;;9.50;2.08;;;;;;;6.83;100.00;98947.00;5077131;28;20028;-85
2024/01/03 08:06:20;;;;;;;12.17;2.40;;;;;;;6.80;100.00;98952.88;5060679;28;20387;-85
2024/01/03 08:08:47;;;;;;;12.63;2.10;;;;;;;6.81;100.00;98926.75;5077385;28;20078;-86
2024/01/03 08:11:15;;;;;;;11.52;1.58;;;;;;;6.81;100.00;98946.44;5060465;28;20040;-86
2024/01/03 08:13:43;;;;;;;9.63;1.65;;;;;;;6.82;100.00;98934.59;5077148;28;20551;-87
2024/01/03 08:16:15;;;;;;;11.93;1.50;;;;;;;6.84;100.00;98945.94;5047987;28;20020;-86
2024/01/03 08:18:43;;;;;;;17.08;1.60;;;;;;;6.84;100.00;98945.16;5094945;28;20111;-86
2024/01/03 08:21:08;;;;;;;16.17;1.95;;;;;;;6.85;100.00;98954.88;5077298;28;20024;-86
2024/01/03 08:23:33;;;;;;;19.17;2.33;;;;;;;6.87;100.00;98946.56;5061005;28;20044;-86
2024/01/03 08:25:59;;;;;;;19.63;1.75;;;;;;;6.88;100.00;98950.88;5081045;28;20025;-86
2024/01/03 08:28:24;;;;;;;13.67;1.50;;;;;;;6.91;100.00;98955.78;5076005;28;20476;-86
2024/01/03 08:30:50;;;;;;;19.77;1.63;;;;;;;6.91;100.00;98959.31;5058680;28;20083;-86
2024/01/03 08:33:18;;;;;;;14.40;1.33;;;;;;;6.94;100.00;98958.00;5075858;28;20082;-86
2024/01/03 08:35:44;;;;;;;14.35;1.42;;;;;;;6.95;100.00;98960.50;5059596;28;20031;-87
2024/01/03 08:38:09;;;;;;;21.40;1.80;;;;;;;6.99;100.00;98960.81;5040441;28;20119;-87
2024/01/03 08:40:38;;;;;;;16.77;1.63;;;;;;;6.99;100.00;98955.44;5073802;28;20290;-86
2024/01/03 08:43:03;;;;;;;15.15;1.50;;;;;;;7.01;100.00;98945.22;5076726;28;20388;-87
2024/01/03 08:45:29;;;;;;;17.87;1.70;;;;;;;7.04;100.00;98952.81;5094675;28;20047;-86
2024/01/03 08:47:54;;;;;;;18.27;2.80;;;;;;;7.06;100.00;98966.06;5076514;28;20043;-85
2024/01/03 08:50:22;;;;;;;23.57;1.80;;;;;;;7.09;100.00;98971.00;5093932;28;20531;-87
2024/01/03 08:52:47;;;;;;;22.15;2.00;;;;;;;7.12;100.00;98967.81;5076164;28;20024;-87
2024/01/03 08:55:12;;;;;;;20.80;2.60;;;;;;;7.19;100.00;98973.91;5070456;28;20047;-86
2024/01/03 08:57:38;;;;;;;26.85;2.63;;;;;;;7.23;100.00;98977.75;5067792;28;20099;-86
2024/01/03 09:00:04;;;;;;;38.80;3.33;;;;;;;7.28;100.00;98960.84;5074145;28;20035;-87
2024/01/03 09:02:31;;;;;;;21.88;2.17;;;;;;;7.34;100.00;98973.38;5058336;28;20154;-87
2024/01/03 09:04:57;;;;;;;26.00;2.92;;;;;;;7.41;100.00;98973.22;5056869;28;20476;-87
2024/01/03 09:07:22;;;;;;;33.60;3.20;;;;;;;7.43;100.00;98969.25;5023155;28;20044;-87
2024/01/03 09:09:48;;;;;;;24.35;2.50;;;;;;;7.48;100.00;98982.00;5056771;28;20051;-86
2024/01/03 09:12:13;;;;;;;30.60;3.83;;;;;;;7.51;100.00;98973.44;5074831;28;20108;-87
2024/01/03 09:14:40;;;;;;;25.13;2.93;;;;;;;7.55;100.00;98978.09;5056263;28;20111;-87
2024/01/03 09:17:05;;;;;;;29.70;3.10;;;;;;;7.57;100.00;98982.44;5056243;28;20078;-87
2024/01/03 09:19:39;;;;;;;27.17;2.83;;;;;;;7.62;100.00;98985.22;5056295;28;20486;-87
2024/01/03 09:22:04;;;;;;;33.03;4.03;;;;;;;7.66;100.00;98979.13;5072611;28;20379;-87
2024/01/03 09:24:30;;;;;;;24.60;2.40;;;;;;;7.75;100.00;98987.66;5056507;28;20025;-87
2024/01/03 09:26:55;;;;;;;24.35;2.40;;;;;;;7.81;100.00;98985.84;5055967;28;20282;-87
2024/01/03 09:29:20;;;;;;;23.83;2.37;;;;;;;7.89;100.00;98988.97;5056075;28;20021;-87
2024/01/03 09:31:46;;;;;;;24.27;3.20;;;;;;;7.95;100.00;98981.78;5055962;28;20028;-87
2024/01/03 09:34:12;;;;;;;29.73;2.70;;;;;;;7.98;100.00;98981.28;5056307;28;20115;-87
2024/01/03 09:36:37;;;;;;;21.95;2.70;;;;;;;8.07;100.00;98981.72;5056128;28;20033;-87
2024/01/03 09:39:03;;;;;;;20.27;2.30;;;;;;;8.06;100.00;98983.59;5055825;28;20036;-86
2024/01/03 09:41:36;;;;;;;21.15;2.33;;;;;;;8.14;100.00;98981.56;5055683;28;20048;-87
2024/01/03 09:44:02;;;;;;;19.50;2.88;;;;;;;8.16;100.00;98996.44;5055728;28;20536;-87
2024/01/03 09:46:31;;;;;;;20.65;2.80;;;;;;;8.25;100.00;98983.34;5055529;28;20047;-87
2024/01/03 09:48:56;;;;;;;14.32;2.38;;;;;;;8.33;100.00;98987.53;5054634;28;20484;-87
2024/01/03 09:51:22;;;;;;;14.97;1.50;;;;;;;8.37;100.00;98989.50;5055648;28;20056;-87
2024/01/03 09:53:52;;;;;;;18.98;2.55;;;;;;;8.42;100.00;98992.28;5055626;28;20020;-87
2024/01/03 09:56:20;;;;;;;28.13;2.42;;;;;;;8.44;100.00;98992.06;5055711;28;20558;-87
2024/01/03 09:58:49;;;;;;;18.27;2.97;;;;;;;8.50;100.00;99004.56;5056118;28;20045;-87
2024/01/03 10:01:14;;;;;;;23.65;2.45;;;;;;;8.55;100.00;98991.16;5055033;28;20040;-87
2024/01/03 10:03:40;;;;;;;21.80;2.97;;;;;;;8.62;100.00;99009.09;5056079;28;20032;-87
2024/01/03 10:06:15;;;;;;;24.35;2.97;;;;;;;8.70;100.00;98993.25;5039156;28;20035;-87
2024/01/03 10:08:40;;;;;;;19.38;2.55;;;;;;;8.72;100.00;98985.69;5055359;28;20020;-88
2024/01/03 10:11:20;;;;;;;31.70;3.53;;;;;;;8.70;100.00;99004.06;5055238;28;20029;-87
2024/01/03 10:13:50;;;;;;;21.92;2.50;;;;;;;8.72;100.00;98995.72;5059223;28;20024;-89
2024/01/03 10:23:20;;;;;;;;;;;;;;;;;;;;;
2024/01/03 10:25:55;;;;;;;20.23;3.83;;;;;;;8.97;100.00;99013.38;5093800;28;20020;-88
2024/01/03 10:28:20;;;;;;;25.00;3.30;;;;;;;9.11;100.00;99004.63;5075268;28;20111;-88
2024/01/03 10:30:52;;;;;;;27.20;3.23;;;;;;;9.20;100.00;99007.72;5075375;28;20424;-88
2024/01/03 10:33:18;;;;;;;23.60;3.25;;;;;;;9.28;100.00;99028.13;5074625;28;20114;-88
2024/01/03 10:35:44;;;;;;;24.00;3.03;;;;;;;9.41;100.00;99005.28;5075219;28;20063;-88
2024/01/03 10:38:10;;;;;;;20.02;2.88;;;;;;;9.52;100.00;98990.75;5093128;28;20028;-86
2024/01/03 10:40:39;;;;;;;17.55;2.55;;;;;;;9.48;100.00;99003.19;5075307;28;20123;-89
2024/01/03 10:43:07;;;;;;;22.77;2.85;;;;;;;9.47;100.00;99031.31;5066034;28;20031;-88
2024/01/03 10:45:33;;;;;;;16.30;1.95;;;;;;;9.45;100.00;99007.22;5072227;28;20020;-88
2024/01/03 10:47:59;;;;;;;19.52;2.97;;;;;;;9.47;100.00;99015.09;5066620;28;20028;-88
2024/01/03 10:50:28;;;;;;;23.58;2.60;;;;;;;9.47;100.00;99013.19;5074827;28;20522;-88
2024/01/03 10:53:01;;;;;;;18.88;2.60;;;;;;;9.43;100.00;99033.72;5075101;28;20024;-87
2024/01/03 10:55:38;;;;;;;16.17;2.20;;;;;;;9.41;100.00;99016.09;5087287;28;20035;-89
2024/01/03 10:58:14;;;;;;;16.63;2.83;;;;;;;9.49;100.00;99004.81;5074121;28;20100;-88
2024/01/03 11:01:17;;;;;;;;;;;;;;;;;;;;;
2024/01/03 11:04:21;;;;;;;17.30;2.40;;;;;;;9.67;100.00;99003.69;5077058;28;20039;-88
2024/01/03 11:07:00;;;;;;;26.73;3.05;;;;;;;9.64;100.00;98999.56;5058818;28;20036;-88
2024/01/03 11:09:52;;;;;;;25.10;2.80;;;;;;;9.50;100.00;99019.19;5059630;28;20032;-88
2024/01/03 11:12:17;;;;;;;28.10;3.03;;;;;;;8.98;100.00;99001.50;5059842;28;20479;-86
2024/01/03 11:14:45;;;;;;;22.37;2.73;;;;;;;8.64;100.00;99012.38;5068311;28;20033;-86
2024/01/03 11:17:11;;;;;;;24.58;2.60;;;;;;;8.35;100.00;99037.56;5047691;28;20028;-86
2024/01/03 11:19:39;;;;;;;32.53;3.00;;;;;;;8.20;100.00;99013.00;5047078;28;20090;-86
2024/01/03 11:22:05;;;;;;;32.45;3.08;;;;;;;8.10;100.00;99024.44;5062722;28;20476;-86
2024/01/03 11:24:30;;;;;;;28.80;3.28;;;;;;;8.08;100.00;99026.56;5077968;28;20078;-86
2024/01/03 11:26:56;;;;;;;24.98;2.22;;;;;;;8.05;100.00;99043.28;5096018;28;20032;-86
2024/01/03 11:29:53;;;;;;;36.43;4.00;;;;;;;8.03;100.00;99039.97;5078053;28;20452;-87
2024/01/03 11:32:35;;;;;;;28.40;3.17;;;;;;;7.98;100.00;99043.41;5037521;28;20040;-87
2024/01/03 11:35:11;;;;;;;28.30;3.70;;;;;;;7.95;100.00;99030.38;5075733;28;20143;-86
2024/01/03 11:37:38;;;;;;;25.35;2.80;;;;;;;7.93;100.00;99037.94;5064457;28;20468;-86
2024/01/03 11:40:06;;;;;;;22.50;3.17;;;;;;;7.84;100.00;99042.06;5061053;28;20034;-86
2024/01/03 11:42:38;;;;;;;22.77;2.13;;;;;;;7.80;100.00;99043.63;5076376;28;20111;-86
2024/01/03 11:45:05;;;;;;;17.25;2.22;;;;;;;7.60;100.00;99057.53;5077530;28;20031;-88
2024/01/03 11:47:35;;;;;;;12.30;1.77;;;;;;;7.45;100.00;99045.38;5092086;28;20043;-86
2024/01/03 11:50:04;;;;;;;17.00;2.95;;;;;;;7.35;100.00;99032.50;5056910;28;20037;-86
2024/01/03 11:52:37;;;;;;;17.83;1.20;;;;;;;7.27;100.00;99026.66;5042522;28;20098;-85
2024/01/03 11:55:17;;;;;;;14.15;1.77;;;;;;;7.22;100.00;99021.16;5040851;28;20029;-86
2024/01/03 11:57:44;;;;;;;11.73;1.45;;;;;;;7.14;100.00;99006.97;5061959;28;20028;-87
2024/01/03 12:00:15;;;;;;;15.40;1.80;;;;;;;7.11;100.00;99025.50;5095377;28;20093;-87
2024/01/03 12:02:54;;;;;;;14.68;1.60;;;;;;;7.07;100.00;99022.47;5076661;28;20057;-87
2024/01/03 12:05:21;;;;;;;18.07;1.43;;;;;;;7.02;100.00;99020.47;5077038;28;20032;-87
2024/01/03 12:07:48;;;;;;;11.45;1.13;;;;;;;6.99;100.00;99029.03;5076326;28;20055;-86
2024/01/03 12:10:14;;;;;;;11.23;1.38;;;;;;;6.93;100.00;99021.09;5094568;28;20491;-86
2024/01/03 12:12:40;;;;;;;9.65;0.88;;;;;;;6.85;100.00;98995.31;5076406;28;20032;-87
2024/01/03 12:15:05;;;;;;;11.00;0.90;;;;;;;6.80;100.00;98987.91;5077246;28;20024;-86
2024/01/03 12:17:34;;;;;;;7.28;0.50;;;;;;;6.80;100.00;99004.09;5096109;28;20035;-88
2024/01/03 12:20:11;;;;;;;11.82;1.25;;;;;;;6.79;100.00;98990.84;5077326;28;20491;-86
2024/01/03 12:22:37;;;;;;;5.68;0.60;;;;;;;6.88;100.00;98997.53;5060220;28;20150;-87
2024/01/03 12:25:03;;;;;;;7.65;1.17;;;;;;;6.96;100.00;98994.47;5095511;28;20051;-87
2024/01/03 12:27:30;;;;;;;10.63;0.82;;;;;;;7.12;100.00;98994.81;5078008;28;20177;-87
2024/01/03 12:30:17;;;;;;;8.77;0.95;;;;;;;7.06;100.00;99001.13;5077152;28;20479;-87
2024/01/03 12:32:44;;;;;;;11.20;1.07;;;;;;;6.96;100.00;98994.47;5078250;28;20120;-86
2024/01/03 12:35:12;;;;;;;13.02;1.20;;;;;;;6.95;100.00;98987.44;5095353;28;20057;-87
2024/01/03 12:37:43;;;;;;;11.68;1.10;;;;;;;7.10;100.00;98976.16;5076939;28;20425;-84
2024/01/03 12:40:16;;;;;;;9.32;1.25;;;;;;;7.63;100.00;98974.22;5075446;28;20032;-84
2024/01/03 12:42:43;;;;;;;7.72;0.80;;;;;;;7.81;100.00;98978.59;5076440;28;20545;-84
2024/01/03 12:45:11;;;;;;;12.20;1.00;;;;;;;7.86;100.00;98980.53;5075865;28;20074;-84
2024/01/03 12:47:38;;;;;;;8.75;0.85;;;;;;;7.70;100.00;98965.94;5076939;28;20020;-85
2024/01/03 12:50:06;;;;;;;6.30;1.20;;;;;;;7.69;100.00;98980.50;5076486;28;20419;-87
2024/01/03 12:52:34;;;;;;;8.00;0.70;;;;;;;7.76;100.00;98962.28;5076530;28;20365;-88
2024/01/03 12:54:59;;;;;;;8.63;1.08;;;;;;;8.47;100.00;98963.72;5076227;28;20551;-87
2024/01/03 12:57:25;;;;;;;12.43;1.30;;;;;;;9.48;100.00;98947.16;5046308;28;20059;-87
2024/01/03 12:59:53;;;;;;;15.70;2.00;;;;;;;10.40;100.00;98948.25;5056597;28;20024;-87
2024/01/03 13:02:19;;;;;;;12.93;2.23;;;;;;;11.31;100.00;98954.38;5056549;28;20024;-86
2024/01/03 13:04:48;;;;;;;9.30;1.55;;;;;;;12.11;100.00;98930.38;5056601;28;20067;-90
2024/01/03 13:07:14;;;;;;;9.43;1.10;;;;;;;12.21;100.00;98945.03;5056697;28;20040;-87
2024/01/03 13:09:42;;;;;;;4.93;1.25;;;;;;;12.57;100.00;98925.97;5056132;28;20499;-87
2024/01/03 13:12:08;;;;;;;8.13;1.20;;;;;;;13.39;100.00;98914.78;5074508;28;20477;-87
2024/01/03 13:14:33;;;;;;;4.63;0.90;;;;;;;12.86;100.00;98919.88;5038935;28;20037;-88
2024/01/03 13:16:59;;;;;;;8.60;1.42;;;;;;;12.43;100.00;98923.81;5056630;28;20033;-87
2024/01/03 13:19:26;;;;;;;5.40;0.90;;;;;;;11.90;100.00;98909.69;5023836;28;20039;-87
2024/01/03 13:21:55;;;;;;;10.02;1.48;;;;;;;11.21;100.00;98920.69;5055145;28;20090;-87
2024/01/03 13:24:23;;;;;;;6.95;1.30;;;;;;;10.68;100.00;98920.75;5055989;28;20119;-90
2024/01/03 13:26:49;;;;;;;10.33;1.90;;;;;;;10.89;100.00;98904.56;5056220;28;20481;-88
2024/01/03 13:29:14;;;;;;;10.27;1.55;;;;;;;12.16;100.00;98902.34;5039225;28;20123;-88
2024/01/03 13:31:40;;;;;;;8.13;1.27;;;;;;;12.29;100.00;98898.28;5056181;28;20039;-88
2024/01/03 13:34:08;;;;;;;8.57;1.53;;;;;;;12.98;100.00;98895.91;5055926;28;20393;-88
2024/01/03 13:36:35;;;;;;;9.40;1.55;;;;;;;13.02;100.00;98896.97;5055770;28;20028;-87
2024/01/03 13:39:04;;;;;;;14.38;2.22;;;;;;;13.44;100.00;98897.59;5055739;28;20094;-88
2024/01/03 13:41:34;;;;;;;7.57;1.95;;;;;;;13.51;100.00;98879.84;5073963;28;20148;-88
2024/01/03 13:44:00;;;;;;;7.95;1.85;;;;;;;12.86;100.00;98898.94;5068227;28;20110;-87
2024/01/03 13:46:28;;;;;;;9.77;1.67;;;;;;;12.84;100.00;98901.09;5055682;28;20067;-89
2024/01/03 13:48:59;;;;;;;15.02;1.92;;;;;;;12.00;100.00;98896.13;5055637;28;20028;-88
2024/01/03 13:51:35;;;;;;;11.30;2.10;;;;;;;11.38;100.00;98893.34;5039699;28;20120;-88
2024/01/03 13:54:00;;;;;;;9.90;1.77;;;;;;;11.71;100.00;98885.75;5056423;28;20135;-88
2024/01/03 13:56:35;;;;;;;15.40;2.45;;;;;;;12.12;100.00;98890.41;5055502;28;20484;-88
2024/01/03 13:59:03;;;;;;;9.82;1.48;;;;;;;12.48;100.00;98887.63;5039406;28;20055;-88
2024/01/03 14:01:31;;;;;;;8.88;1.50;;;;;;;12.07;100.00;98883.06;5039729;28;20036;-88
2024/01/03 14:03:57;;;;;;;7.78;1.33;;;;;;;11.51;100.00;98908.28;5055357;28;20035;-88
2024/01/03 14:06:25;;;;;;;9.50;1.90;;;;;;;11.17;100.00;98887.03;5055294;28;20024;-88
2024/01/03 14:08:55;;;;;;;12.35;1.65;;;;;;;11.34;100.00;98881.38;5074442;28;20512;-88
2024/01/03 14:11:23;;;;;;;11.15;1.88;;;;;;;11.49;100.00;98893.34;5044524;28;20029;-87
2024/01/03 14:13:51;;;;;;;7.85;1.40;;;;;;;11.32;100.00;98885.44;5052858;28;20083;-88
2024/01/03 14:16:16;;;;;;;6.50;1.20;;;;;;;10.91;100.00;98880.72;5055637;28;20495;-88
2024/01/03 14:18:47;;;;;;;11.07;1.47;;;;;;;10.45;100.00;98873.19;5073622;28;20036;-88
2024/01/03 14:21:12;;;;;;;9.65;1.40;;;;;;;10.20;100.00;98876.50;5056677;28;20074;-88
2024/01/03 14:23:39;;;;;;;10.73;1.50;;;;;;;9.95;100.00;98896.09;5055385;28;20458;-88
2024/01/03 14:26:09;;;;;;;10.80;1.60;;;;;;;9.73;100.00;98874.53;5038635;28;20060;-88
2024/01/03 14:28:38;;;;;;;13.57;1.50;;;;;;;9.56;100.00;98872.78;5073008;28;20362;-89
2024/01/03 14:31:05;;;;;;;9.90;1.40;;;;;;;9.45;100.00;98881.88;5055292;28;20056;-88
2024/01/03 14:33:33;;;;;;;6.65;1.25;;;;;;;9.41;100.00;98875.34;5054909;28;20028;-88
2024/01/03 14:36:04;;;;;;;10.75;1.58;;;;;;;9.30;100.00;98883.38;5055628;28;20487;-85
2024/01/03 14:38:31;;;;;;;5.97;1.50;;;;;;;9.20;100.00;98885.16;5055014;28;20040;-85
2024/01/03 14:40:57;;;;;;;6.80;1.50;;;;;;;9.16;100.00;98881.31;5064571;28;20075;-85
2024/01/03 14:43:31;;;;;;;10.93;2.37;;;;;;;9.07;100.00;98878.25;5074625;28;20476;-85
2024/01/03 14:46:00;;;;;;;13.52;1.52;;;;;;;9.03;100.00;98890.63;5063346;28;20025;-85
2024/01/03 14:48:35;;;;;;;9.02;1.58;;;;;;;8.98;100.00;98872.47;5074517;28;20039;-86
2024/01/03 14:51:04;;;;;;;9.13;1.50;;;;;;;8.94;100.00;98872.13;5075145;28;20028;-86
2024/01/03 14:53:35;;;;;;;14.38;1.70;;;;;;;8.92;100.00;98885.09;5074990;28;20078;-84
2024/01/03 14:56:01;;;;;;;12.13;1.80;;;;;;;8.94;100.00;98865.91;5075314;28;20135;-88
2024/01/03 14:58:28;;;;;;;10.13;1.40;;;;;;;8.96;100.00;98858.34;5074156;28;20527;-89
2024/01/03 15:01:03;;;;;;;14.63;1.58;;;;;;;8.91;100.00;98864.53;5054624;28;20131;-87
2024/01/03 15:03:32;;;;;;;8.38;1.80;;;;;;;8.94;100.00;98874.03;5074503;28;20108;-88
2024/01/03 15:06:00;;;;;;;13.90;1.60;;;;;;;8.88;100.00;98858.81;5074877;28;20044;-88
2024/01/03 15:08:25;;;;;;;7.50;1.52;;;;;;;8.86;100.00;98861.78;5074526;28;20113;-88